Newfield, New York
Current Conditions -  °F | °C
As of 2:56 AM on Sunday 21 Dec 2014 (Local Time) from KITH Reporting Station
Overcast Overcast  
Wind Chill: 27°   Ceiling: 2000
Heat Index: 27°   Visibility: 10mi
Dew Point: 22°   Wind: 3mph
Humidity: 81%   Direction: 150°SSE
Pressure: 30.26"   Gusts: NA
Location:  42.36°N, 76.59°W
Report Text: KITH 210756Z AUTO 15003KT 10SM OVC020 M03/M06 A3026 RMK AO2 T10271055 SLP263
Loading
Personal Weather Stations






























Interactive Weather Map New forecast layout! Learn more

10-Day Weather Forecast

Advertisements
Track Severe Weather on mobile